createdAt,value
2024-02-27T00:00:27.531Z,0.85
2024-02-27T00:02:54.459Z,0.80
2024-02-27T00:05:21.358Z,0.90
2024-02-27T00:07:48.240Z,0.95
2024-02-27T00:10:18.465Z,0.75
2024-02-27T00:12:45.451Z,0.75
2024-02-27T00:15:12.555Z,0.70
2024-02-27T00:17:39.456Z,1.00
2024-02-27T00:20:08.435Z,0.73
2024-02-27T00:22:36.027Z,1.15
2024-02-27T00:25:02.932Z,0.95
2024-02-27T00:27:29.826Z,0.90
2024-02-27T00:29:56.860Z,0.77
2024-02-27T00:32:23.889Z,0.70
2024-02-27T00:34:50.777Z,0.70
2024-02-27T00:37:17.679Z,0.70
2024-02-27T00:39:44.605Z,0.70
2024-02-27T00:42:11.653Z,0.88
2024-02-27T00:44:39.498Z,0.73
2024-02-27T00:47:06.433Z,0.65
2024-02-27T00:49:33.377Z,0.60
2024-02-27T00:52:00.307Z,0.88
2024-02-27T00:54:27.280Z,0.38
2024-02-27T00:56:54.225Z,0.73
2024-02-27T00:59:21.097Z,0.70
2024-02-27T01:01:47.966Z,0.80
2024-02-27T01:04:14.792Z,0.80
2024-02-27T01:06:41.747Z,0.93
2024-02-27T01:09:08.699Z,0.68
2024-02-27T01:11:35.745Z,0.88
2024-02-27T01:14:02.646Z,0.70
2024-02-27T01:16:29.532Z,0.70
2024-02-27T01:18:56.469Z,0.60
2024-02-27T01:21:23.480Z,0.73
2024-02-27T01:23:50.362Z,1.00
2024-02-27T01:26:17.196Z,0.68
2024-02-27T01:28:44.081Z,1.02
2024-02-27T01:31:10.904Z,0.80
2024-02-27T01:33:37.910Z,0.60
2024-02-27T01:36:05.145Z,0.60
2024-02-27T01:38:32.056Z,0.75
2024-02-27T01:40:59.112Z,0.95
2024-02-27T01:43:26.519Z,1.17
2024-02-27T01:46:09.368Z,1.00
2024-02-27T01:48:36.444Z,0.90
2024-02-27T01:51:03.606Z,1.00
2024-02-27T01:53:30.929Z,0.80
2024-02-27T01:55:57.844Z,0.95
2024-02-27T01:58:24.931Z,1.15
2024-02-27T02:00:52.147Z,0.80
2024-02-27T02:03:22.020Z,1.00
2024-02-27T02:05:49.231Z,0.85
2024-02-27T02:08:16.059Z,0.88
2024-02-27T02:10:43.023Z,1.13
2024-02-27T02:13:09.930Z,0.98
2024-02-27T02:15:36.954Z,0.80
2024-02-27T02:18:04.034Z,0.88
2024-02-27T02:20:30.970Z,0.70
2024-02-27T02:22:58.052Z,0.88
2024-02-27T02:25:27.108Z,1.55
2024-02-27T02:27:54.903Z,1.13
2024-02-27T02:30:21.781Z,1.10
2024-02-27T02:32:49.563Z,1.05
2024-02-27T02:35:16.991Z,1.27
2024-02-27T02:37:48.332Z,1.40
2024-02-27T02:40:19.161Z,1.15
2024-02-27T02:42:46.065Z,1.17
2024-02-27T02:45:13.498Z,1.10
2024-02-27T02:47:41.178Z,1.20
2024-02-27T02:50:08.640Z,1.13
2024-02-27T02:52:36.102Z,1.27
2024-02-27T02:55:03.617Z,1.48
2024-02-27T02:57:30.935Z,1.10
2024-02-27T02:59:57.953Z,1.35
2024-02-27T03:02:24.872Z,1.15
2024-02-27T03:04:51.719Z,1.33
2024-02-27T03:07:18.638Z,1.10
2024-02-27T03:13:14.097Z,1.48
2024-02-27T03:15:41.020Z,1.58
2024-02-27T03:18:08.068Z,1.42
2024-02-27T03:20:35.109Z,1.30
2024-02-27T03:23:02.028Z,1.50
2024-02-27T03:25:28.894Z,1.67
2024-02-27T03:27:55.798Z,1.40
2024-02-27T03:30:22.655Z,1.65
2024-02-27T03:32:49.593Z,1.63
2024-02-27T03:35:17.107Z,1.85
2024-02-27T03:37:44.427Z,1.85
2024-02-27T03:40:11.297Z,1.50
2024-02-27T03:42:38.442Z,1.52
2024-02-27T03:45:06.164Z,1.65
2024-02-27T03:47:33.071Z,1.50
2024-02-27T03:50:00.041Z,1.75
2024-02-27T03:52:26.933Z,2.13
2024-02-27T03:54:53.792Z,1.50
2024-02-27T03:57:20.906Z,1.67
2024-02-27T03:59:47.737Z,1.50
2024-02-27T04:02:14.564Z,1.58
2024-02-27T04:04:41.461Z,2.05
2024-02-27T04:07:08.422Z,1.85
2024-02-27T04:09:35.291Z,2.00
2024-02-27T04:12:02.242Z,2.45
2024-02-27T04:14:29.158Z,1.88
2024-02-27T04:16:55.975Z,2.00
2024-02-27T04:19:23.031Z,2.20
2024-02-27T04:21:50.037Z,2.50
2024-02-27T04:24:16.969Z,2.58
2024-02-27T04:26:43.999Z,2.45
2024-02-27T04:29:10.788Z,2.40
2024-02-27T04:31:37.614Z,2.47
2024-02-27T04:34:04.926Z,2.38
2024-02-27T04:36:32.282Z,2.47
2024-02-27T04:38:59.149Z,2.83
2024-02-27T04:41:26.022Z,2.65
2024-02-27T04:43:52.850Z,2.70
2024-02-27T04:46:19.633Z,2.88
2024-02-27T04:48:46.478Z,3.05
2024-02-27T04:51:13.375Z,3.03
2024-02-27T04:53:40.284Z,3.58
2024-02-27T04:56:07.367Z,3.35
2024-02-27T04:58:35.848Z,2.97
2024-02-27T05:01:02.674Z,4.00
2024-02-27T05:03:29.596Z,3.20
2024-02-27T05:05:56.634Z,3.50
2024-02-27T05:08:23.568Z,3.65
2024-02-27T05:10:50.449Z,3.60
2024-02-27T05:13:17.289Z,3.38
2024-02-27T05:15:44.141Z,3.33
2024-02-27T05:18:11.161Z,3.55
2024-02-27T05:20:38.041Z,3.03
2024-02-27T05:23:04.945Z,3.50
2024-02-27T05:25:31.865Z,3.70
2024-02-27T05:27:58.732Z,4.25
2024-02-27T05:30:25.747Z,3.85
2024-02-27T05:32:52.728Z,3.50
2024-02-27T05:35:19.585Z,3.28
2024-02-27T05:37:46.420Z,3.85
2024-02-27T05:40:14.808Z,4.00
2024-02-27T05:42:42.554Z,3.10
2024-02-27T05:45:09.693Z,3.55
2024-02-27T05:47:37.055Z,3.53
2024-02-27T05:50:04.537Z,3.08
2024-02-27T05:52:31.448Z,3.58
2024-02-27T05:54:58.512Z,4.05
2024-02-27T05:57:26.703Z,3.75
2024-02-27T05:59:53.590Z,2.90
2024-02-27T06:02:20.470Z,3.40
2024-02-27T06:04:47.391Z,2.90
2024-02-27T06:07:14.394Z,3.72
2024-02-27T06:09:41.616Z,2.85
2024-02-27T06:12:08.598Z,3.38
2024-02-27T06:14:35.971Z,3.10
2024-02-27T06:17:02.933Z,3.45
2024-02-27T06:19:31.939Z,3.00
2024-02-27T06:22:20.404Z,2.92
2024-02-27T06:24:48.144Z,3.30
2024-02-27T06:27:15.091Z,3.45
2024-02-27T06:29:42.335Z,3.75
2024-02-27T06:32:12.101Z,3.60
2024-02-27T06:34:39.788Z,3.58
2024-02-27T06:37:07.032Z,3.15
2024-02-27T06:39:34.093Z,3.63
2024-02-27T06:42:01.167Z,3.70
2024-02-27T06:44:28.311Z,3.38
2024-02-27T06:46:55.191Z,3.97
2024-02-27T06:49:23.544Z,3.38
2024-02-27T06:51:51.155Z,3.40
2024-02-27T06:54:18.351Z,3.78
2024-02-27T06:56:45.251Z,3.83
2024-02-27T06:59:12.140Z,3.65
2024-02-27T07:01:38.968Z,3.47
2024-02-27T07:04:05.875Z,3.17
2024-02-27T07:06:32.967Z,4.07
2024-02-27T07:09:00.170Z,3.60
2024-02-27T07:11:28.337Z,4.22
2024-02-27T07:13:55.603Z,3.50
2024-02-27T07:16:22.488Z,4.05
2024-02-27T07:18:50.022Z,3.50
2024-02-27T07:21:20.168Z,3.60
2024-02-27T07:23:47.769Z,3.72
2024-02-27T07:26:14.776Z,4.28
2024-02-27T07:28:41.666Z,3.38
2024-02-27T07:31:08.744Z,3.35
2024-02-27T07:33:35.624Z,3.72
2024-02-27T07:36:02.615Z,3.92
2024-02-27T07:38:29.452Z,4.75
2024-02-27T07:40:56.379Z,4.07
2024-02-27T07:43:23.307Z,4.32
2024-02-27T07:45:53.295Z,4.18
2024-02-27T07:48:22.904Z,3.35
2024-02-27T07:50:52.857Z,4.32
2024-02-27T07:53:19.732Z,4.22
2024-02-27T07:55:46.662Z,3.72
2024-02-27T07:58:13.624Z,3.97
2024-02-27T08:00:40.621Z,4.50
2024-02-27T08:03:08.129Z,3.92
2024-02-27T08:05:35.089Z,4.30
2024-02-27T08:08:02.049Z,4.00
2024-02-27T08:10:28.908Z,4.50
2024-02-27T08:12:55.808Z,4.35
2024-02-27T08:15:22.823Z,3.58
2024-02-27T08:17:49.738Z,3.92
2024-02-27T08:20:16.577Z,3.53
2024-02-27T08:22:43.596Z,3.53
2024-02-27T08:25:10.590Z,4.10
2024-02-27T08:27:37.607Z,3.00
2024-02-27T08:30:05.680Z,3.30
2024-02-27T08:32:32.822Z,3.65
2024-02-27T08:34:59.985Z,3.92
2024-02-27T08:37:28.307Z,3.70
2024-02-27T08:39:55.246Z,3.03
2024-02-27T08:42:22.202Z,3.63
2024-02-27T08:44:49.177Z,2.90
2024-02-27T08:47:16.072Z,4.00
2024-02-27T08:49:43.525Z,3.50
2024-02-27T08:52:10.581Z,3.20
2024-02-27T08:54:38.243Z,3.30
2024-02-27T08:57:06.108Z,3.13
2024-02-27T08:59:33.463Z,3.38
2024-02-27T09:02:00.455Z,3.33
2024-02-27T09:04:27.542Z,3.45
2024-02-27T09:06:54.799Z,3.17
2024-02-27T09:09:21.886Z,3.85
2024-02-27T09:11:50.220Z,3.55
2024-02-27T09:14:17.278Z,3.80
2024-02-27T09:16:44.596Z,3.97
2024-02-27T09:19:11.577Z,3.55
2024-02-27T09:21:38.627Z,3.58
2024-02-27T09:24:05.721Z,3.35
2024-02-27T09:26:32.605Z,3.55
2024-02-27T09:28:59.578Z,3.47
2024-02-27T09:31:31.660Z,3.55
2024-02-27T09:34:00.684Z,3.70
2024-02-27T09:36:27.956Z,3.10
2024-02-27T09:38:54.952Z,3.25
2024-02-27T09:41:40.550Z,3.70
2024-02-27T09:44:07.457Z,3.47
2024-02-27T09:46:34.649Z,3.38
2024-02-27T09:49:03.514Z,3.85
2024-02-27T09:51:31.168Z,4.38
2024-02-27T09:53:58.782Z,4.63
2024-02-27T09:56:28.587Z,4.25
2024-02-27T09:58:59.922Z,3.72
2024-02-27T10:01:29.673Z,3.75
2024-02-27T10:03:57.482Z,3.10
2024-02-27T10:06:25.574Z,3.65
2024-02-27T10:08:55.256Z,3.85
2024-02-27T10:11:22.762Z,3.83
2024-02-27T10:13:49.744Z,3.72
2024-02-27T10:16:18.914Z,3.30
2024-02-27T10:18:45.877Z,3.22
2024-02-27T10:21:12.862Z,3.63
2024-02-27T10:23:39.701Z,3.17
2024-02-27T10:26:10.263Z,3.72
2024-02-27T10:28:37.498Z,3.67
2024-02-27T10:31:05.944Z,4.15
2024-02-27T10:33:33.127Z,3.70
2024-02-27T10:36:00.119Z,3.47
2024-02-27T10:38:28.402Z,3.40
2024-02-27T10:40:55.273Z,3.28
2024-02-27T10:43:23.001Z,3.47
2024-02-27T10:45:50.131Z,3.85
2024-02-27T10:48:21.820Z,3.05
2024-02-27T10:50:51.215Z,3.10
2024-02-27T10:53:19.825Z,2.45
2024-02-27T10:55:48.566Z,3.15
2024-02-27T10:58:15.469Z,2.30
2024-02-27T11:00:42.786Z,2.17
2024-02-27T11:03:13.128Z,2.10
2024-02-27T11:05:41.830Z,1.88
2024-02-27T11:08:09.195Z,2.05
2024-02-27T11:10:36.122Z,2.25
2024-02-27T11:13:04.335Z,1.60
2024-02-27T11:15:31.866Z,1.50
2024-02-27T11:18:03.415Z,2.25
2024-02-27T11:20:30.569Z,1.33
2024-02-27T11:22:58.016Z,1.40
2024-02-27T11:25:25.441Z,1.30
2024-02-27T11:27:54.026Z,1.38
2024-02-27T11:30:22.375Z,1.05
2024-02-27T11:32:49.844Z,1.00
2024-02-27T11:35:20.119Z,0.77
2024-02-27T11:37:49.095Z,1.38
2024-02-27T11:40:17.791Z,1.00
2024-02-27T11:42:46.868Z,0.73
2024-02-27T11:45:15.299Z,1.00
2024-02-27T11:47:49.133Z,1.30
2024-02-27T11:50:35.830Z,1.20
2024-02-27T11:53:25.285Z,1.23
2024-02-27T11:55:56.939Z,1.15
2024-02-27T12:00:52.229Z,1.00
2024-02-27T12:03:19.299Z,0.80
2024-02-27T12:05:50.483Z,1.02
2024-02-27T12:08:19.019Z,1.52
2024-02-27T12:10:46.544Z,1.10
2024-02-27T12:13:14.164Z,1.40
2024-02-27T12:15:41.044Z,1.30
2024-02-27T12:18:08.331Z,1.40
2024-02-27T12:20:35.489Z,1.00
2024-02-27T12:23:02.590Z,1.15
2024-02-27T12:25:39.972Z,1.17
2024-02-27T12:28:06.826Z,1.70
2024-02-27T12:30:33.728Z,1.65
2024-02-27T12:33:00.687Z,1.60
2024-02-27T12:35:27.738Z,1.30
2024-02-27T12:37:54.571Z,1.02
2024-02-27T12:40:21.627Z,0.70
2024-02-27T12:42:52.262Z,0.73
2024-02-27T12:45:19.611Z,0.70
2024-02-27T12:47:47.148Z,0.70
2024-02-27T12:50:16.945Z,0.80
2024-02-27T12:52:47.681Z,0.90
2024-02-27T12:55:20.306Z,0.82
2024-02-27T12:57:56.866Z,0.90
2024-02-27T13:00:24.528Z,0.70
2024-02-27T13:02:56.041Z,0.90
2024-02-27T13:05:24.221Z,0.75
2024-02-27T13:07:51.395Z,0.75
2024-02-27T13:10:21.673Z,0.60
2024-02-27T13:13:09.156Z,0.57
2024-02-27T13:15:36.843Z,0.50
2024-02-27T13:18:04.095Z,0.60
2024-02-27T13:20:31.082Z,0.57
2024-02-27T13:23:03.096Z,0.60
2024-02-27T13:25:35.994Z,0.45
2024-02-27T13:28:02.856Z,0.30
2024-02-27T13:30:29.763Z,0.43
2024-02-27T13:32:57.385Z,0.60
2024-02-27T13:35:24.570Z,0.43
2024-02-27T13:37:51.528Z,0.60
2024-02-27T13:40:18.457Z,0.80
2024-02-27T13:42:45.712Z,0.60
2024-02-27T13:45:12.645Z,0.95
2024-02-27T13:47:39.540Z,0.90
2024-02-27T13:50:06.982Z,1.17
2024-02-27T13:52:33.888Z,1.50
2024-02-27T13:55:05.260Z,1.00
2024-02-27T13:57:32.456Z,1.15
2024-02-27T13:59:59.463Z,1.20
2024-02-27T14:02:26.405Z,1.33
2024-02-27T14:04:53.522Z,1.15
2024-02-27T14:07:20.512Z,1.42
2024-02-27T14:09:47.411Z,1.20
2024-02-27T14:12:16.086Z,1.35
2024-02-27T14:14:43.908Z,1.50
2024-02-27T14:17:10.771Z,1.40
2024-02-27T14:19:37.813Z,1.60
2024-02-27T14:22:04.964Z,1.38
2024-02-27T14:24:31.931Z,1.33
2024-02-27T14:26:58.829Z,1.20
2024-02-27T14:29:25.768Z,1.55
2024-02-27T14:31:52.589Z,1.42
2024-02-27T14:34:20.941Z,1.33
2024-02-27T14:36:48.020Z,1.20
2024-02-27T14:39:15.071Z,1.35
2024-02-27T14:41:41.944Z,1.30
2024-02-27T14:44:09.402Z,1.30
2024-02-27T14:46:36.526Z,1.50
2024-02-27T14:49:05.162Z,1.75
2024-02-27T14:51:32.486Z,1.90
2024-02-27T14:53:59.378Z,1.52
2024-02-27T14:56:26.211Z,1.30
2024-02-27T14:58:53.062Z,1.60
2024-02-27T15:01:20.043Z,1.35
2024-02-27T15:03:47.040Z,1.58
2024-02-27T15:06:14.154Z,1.42
2024-02-27T15:08:41.456Z,1.40
2024-02-27T15:11:08.649Z,1.40
2024-02-27T15:13:35.671Z,1.20
2024-02-27T15:16:02.527Z,1.73
2024-02-27T15:18:29.594Z,1.42
2024-02-27T15:20:59.686Z,0.90
2024-02-27T15:23:26.549Z,0.90
2024-02-27T15:25:54.403Z,0.80
2024-02-27T15:28:21.359Z,1.10
2024-02-27T15:30:48.246Z,0.90
2024-02-27T15:33:15.467Z,0.95
2024-02-27T15:35:43.719Z,0.80
2024-02-27T15:38:10.753Z,0.85
2024-02-27T15:40:37.598Z,0.65
2024-02-27T15:43:04.947Z,0.90
2024-02-27T15:45:31.781Z,0.63
2024-02-27T15:47:58.756Z,0.80
2024-02-27T15:50:25.663Z,0.93
2024-02-27T15:52:52.733Z,1.10
2024-02-27T15:55:20.751Z,0.95
2024-02-27T15:57:48.323Z,1.33
2024-02-27T16:00:15.856Z,1.30
2024-02-27T16:02:42.804Z,1.10
2024-02-27T16:05:11.291Z,1.10
2024-02-27T16:07:48.500Z,1.13
2024-02-27T16:10:15.616Z,1.30
2024-02-27T16:12:42.596Z,1.13
2024-02-27T16:15:09.816Z,1.27
2024-02-27T16:17:36.761Z,1.60
2024-02-27T16:20:05.025Z,1.10
2024-02-27T16:22:32.131Z,1.10
2024-02-27T16:24:59.135Z,0.93
2024-02-27T16:27:26.099Z,1.20
2024-02-27T16:29:52.933Z,1.30
2024-02-27T16:32:19.783Z,1.00
2024-02-27T16:34:47.121Z,1.10
2024-02-27T16:37:14.068Z,1.30
2024-02-27T16:39:41.047Z,1.10
2024-02-27T16:42:08.030Z,1.35
2024-02-27T16:44:35.228Z,1.35
2024-02-27T16:47:02.285Z,1.80
2024-02-27T16:49:29.443Z,1.45
2024-02-27T16:51:56.405Z,1.25
2024-02-27T16:54:23.271Z,1.00
2024-02-27T16:56:50.166Z,1.42
2024-02-27T16:59:17.019Z,1.20
2024-02-27T17:01:43.945Z,1.50
2024-02-27T17:04:11.023Z,1.30
2024-02-27T17:06:41.552Z,1.15
2024-02-27T17:09:10.573Z,1.30
2024-02-27T17:11:37.669Z,1.33
2024-02-27T17:14:04.545Z,1.27
2024-02-27T17:16:31.444Z,1.30
2024-02-27T17:18:58.599Z,1.17
2024-02-27T17:21:25.716Z,1.10
2024-02-27T17:23:52.561Z,1.25
2024-02-27T17:26:19.415Z,1.08
2024-02-27T17:28:46.494Z,1.27
2024-02-27T17:31:13.636Z,1.48
2024-02-27T17:33:40.609Z,1.38
2024-02-27T17:36:07.792Z,1.25
2024-02-27T17:38:34.676Z,1.27
2024-02-27T17:41:01.613Z,1.48
2024-02-27T17:43:28.513Z,1.65
2024-02-27T17:45:55.477Z,1.40
2024-02-27T17:48:23.365Z,2.10
2024-02-27T17:50:50.333Z,2.25
2024-02-27T17:53:17.165Z,2.65
2024-02-27T17:55:44.052Z,2.60
2024-02-27T17:58:10.960Z,2.78
2024-02-27T18:00:38.474Z,2.60
2024-02-27T18:03:05.840Z,2.80
2024-02-27T18:05:32.864Z,2.70
2024-02-27T18:07:59.722Z,2.70
2024-02-27T18:10:27.190Z,2.38
2024-02-27T18:12:54.206Z,2.35
2024-02-27T18:15:21.208Z,2.20
2024-02-27T18:17:48.635Z,2.30
2024-02-27T18:20:16.209Z,2.85
2024-02-27T18:22:43.403Z,2.70
2024-02-27T18:25:12.526Z,2.58
2024-02-27T18:27:40.608Z,2.90
2024-02-27T18:30:08.423Z,2.70
2024-02-27T18:32:35.759Z,2.80
2024-02-27T18:35:04.580Z,2.50
2024-02-27T18:37:32.003Z,2.00
2024-02-27T18:39:59.542Z,2.60
2024-02-27T18:42:26.865Z,2.30
2024-02-27T18:44:53.786Z,2.40
2024-02-27T18:47:21.135Z,1.90
2024-02-27T18:49:49.500Z,2.38
2024-02-27T18:52:17.986Z,1.98
2024-02-27T18:54:45.292Z,2.20
2024-02-27T18:57:12.229Z,2.13
2024-02-27T18:59:39.160Z,2.05
2024-02-27T19:02:06.022Z,1.95
2024-02-27T19:04:32.853Z,2.20
2024-02-27T19:06:59.853Z,1.67
2024-02-27T19:09:27.623Z,2.20
2024-02-27T19:11:57.060Z,2.33
2024-02-27T19:14:24.297Z,2.03
2024-02-27T19:16:51.144Z,1.90
2024-02-27T19:19:18.520Z,1.83
2024-02-27T19:21:45.670Z,2.25
2024-02-27T19:24:13.099Z,2.35
2024-02-27T19:26:39.980Z,1.88
2024-02-27T19:29:06.806Z,2.20
2024-02-27T19:31:33.633Z,1.90
2024-02-27T19:34:00.520Z,1.95
2024-02-27T19:36:27.481Z,1.98
2024-02-27T19:38:54.287Z,2.05
2024-02-27T19:41:21.093Z,1.75
2024-02-27T19:43:49.241Z,2.33
2024-02-27T19:46:19.885Z,1.75
2024-02-27T19:48:47.370Z,1.70
2024-02-27T19:51:15.115Z,1.60
2024-02-27T19:53:47.143Z,1.73
2024-02-27T19:56:15.396Z,1.60
2024-02-27T19:58:42.199Z,1.55
2024-02-27T20:01:09.376Z,1.67
2024-02-27T20:03:36.379Z,1.95
2024-02-27T20:06:03.317Z,1.58
2024-02-27T20:08:30.139Z,1.90
2024-02-27T20:10:57.075Z,1.90
2024-02-27T20:13:24.223Z,1.70
2024-02-27T20:15:51.687Z,2.17
2024-02-27T20:18:18.722Z,2.40
2024-02-27T20:20:45.690Z,1.98
2024-02-27T20:23:12.603Z,1.92
2024-02-27T20:25:40.305Z,2.08
2024-02-27T20:28:07.672Z,1.80
2024-02-27T20:30:34.614Z,1.73
2024-02-27T20:33:01.471Z,2.03
2024-02-27T20:35:29.078Z,2.10
2024-02-27T20:37:56.069Z,2.53
2024-02-27T20:40:23.984Z,2.20
2024-02-27T20:42:51.071Z,1.95
2024-02-27T20:45:18.094Z,2.28
2024-02-27T20:47:45.302Z,1.98
2024-02-27T20:50:12.297Z,2.63
2024-02-27T20:52:39.419Z,2.22
2024-02-27T20:55:07.120Z,2.33
2024-02-27T20:57:34.241Z,2.40
2024-02-27T21:00:01.151Z,1.90
2024-02-27T21:02:30.425Z,2.22
2024-02-27T21:04:58.494Z,2.10
2024-02-27T21:07:25.561Z,1.80
2024-02-27T21:09:53.026Z,1.95
2024-02-27T21:12:19.985Z,1.70
2024-02-27T21:14:46.916Z,1.90
2024-02-27T21:17:14.753Z,2.00
2024-02-27T21:19:41.680Z,1.63
2024-02-27T21:22:09.370Z,1.85
2024-02-27T21:24:36.394Z,1.70
2024-02-27T21:27:03.382Z,2.20
2024-02-27T21:29:30.454Z,1.80
2024-02-27T21:31:57.521Z,1.85
2024-02-27T21:34:24.363Z,1.80
2024-02-27T21:36:54.937Z,1.60
2024-02-27T21:39:22.095Z,1.98
2024-02-27T21:41:49.061Z,1.60
2024-02-27T21:44:15.927Z,1.65
2024-02-27T21:46:42.835Z,1.80
2024-02-27T21:49:09.752Z,2.53
2024-02-27T21:51:41.473Z,1.88
2024-02-27T21:54:13.318Z,1.85
2024-02-27T21:56:40.220Z,1.98
2024-02-27T21:59:07.561Z,2.00
2024-02-27T22:01:34.935Z,2.30
2024-02-27T22:04:02.631Z,1.90
2024-02-27T22:06:29.696Z,2.53
2024-02-27T22:08:57.481Z,1.88
2024-02-27T22:11:25.291Z,2.50
2024-02-27T22:13:52.147Z,2.33
2024-02-27T22:16:19.230Z,2.00
2024-02-27T22:18:46.111Z,2.40
2024-02-27T22:21:13.019Z,2.42
2024-02-27T22:23:40.258Z,2.38
2024-02-27T22:26:07.305Z,2.70
2024-02-27T22:28:34.142Z,2.35
2024-02-27T22:31:01.235Z,2.50
2024-02-27T22:33:28.974Z,2.13
2024-02-27T22:35:55.943Z,2.20
2024-02-27T22:38:22.884Z,2.50
2024-02-27T22:40:49.718Z,2.22
2024-02-27T22:43:17.302Z,2.38
2024-02-27T22:45:46.065Z,2.08
2024-02-27T22:48:13.379Z,2.20
2024-02-27T22:50:40.386Z,2.38
2024-02-27T22:53:09.898Z,2.53
2024-02-27T22:55:39.620Z,2.83
2024-02-27T22:58:07.963Z,2.63
2024-02-27T23:00:36.061Z,3.47
2024-02-27T23:03:03.138Z,2.78
2024-02-27T23:05:30.052Z,2.70
2024-02-27T23:07:56.941Z,3.10
2024-02-27T23:10:23.731Z,2.67
2024-02-27T23:12:50.769Z,2.88
2024-02-27T23:15:18.791Z,2.97
2024-02-27T23:17:46.600Z,2.50
2024-02-27T23:20:13.661Z,2.97
2024-02-27T23:22:43.820Z,2.35
2024-02-27T23:25:11.113Z,2.42
2024-02-27T23:27:38.331Z,2.95
2024-02-27T23:30:07.836Z,2.70
2024-02-27T23:32:35.142Z,2.88
2024-02-27T23:35:02.799Z,2.78
2024-02-27T23:37:29.842Z,2.70
2024-02-27T23:39:56.719Z,2.90
2024-02-27T23:42:24.578Z,2.50
2024-02-27T23:44:53.741Z,2.92
2024-02-27T23:47:20.554Z,2.53
2024-02-27T23:49:47.400Z,2.60
2024-02-27T23:52:14.242Z,2.58
2024-02-27T23:54:42.078Z,2.50
2024-02-27T23:57:09.206Z,2.67
2024-02-27T23:59:36.304Z,2.38
